Time,TemperatureF,DewpointF,PressureIn,WindDirection,WindDirectionDegrees,WindSpeedMPH,WindSpeedGustMPH,Humidity,HourlyPrecipIn,Conditions,Clouds,dailyrainin,SoftwareType,DateUTC
2013-09-13 00:05:00,68.4,67.5,29.67,South,171,0.0,0.0,97,0.00,,,0.41,Wunderground v.1.15,2013-09-13 04:05:00,
2013-09-13 00:10:00,68.4,67.5,29.67,South,171,0.0,0.0,97,0.00,,,0.41,Wunderground v.1.15,2013-09-13 04:10:00,
2013-09-13 00:20:00,68.6,67.7,29.67,South,171,0.0,0.0,97,0.00,,,0.41,Wunderground v.1.15,2013-09-13 04:20:00,
2013-09-13 00:25:00,68.6,67.7,29.67,South,171,0.0,0.0,97,0.00,,,0.41,Wunderground v.1.15,2013-09-13 04:25:00,
2013-09-13 00:35:00,68.4,67.5,29.67,South,171,0.0,0.0,97,0.00,,,0.41,Wunderground v.1.15,2013-09-13 04:35:00,
2013-09-13 00:45:00,68.4,67.5,29.67,South,171,0.0,0.0,97,0.00,,,0.41,Wunderground v.1.15,2013-09-13 04:45:00,
2013-09-13 00:55:00,68.4,67.5,29.67,South,171,0.0,0.0,97,0.00,,,0.41,Wunderground v.1.15,2013-09-13 04:55:00,
2013-09-13 01:00:00,68.3,67.4,29.67,South,171,0.0,0.0,97,0.00,,,0.41,Wunderground v.1.15,2013-09-13 05:00:00,
2013-09-13 01:10:00,68.3,67.4,29.66,South,171,0.0,0.0,97,0.00,,,0.41,Wunderground v.1.15,2013-09-13 05:10:00,
2013-09-13 01:20:00,68.1,67.2,29.66,South,171,0.0,0.0,97,0.00,,,0.41,Wunderground v.1.15,2013-09-13 05:20:00,
2013-09-13 01:30:00,67.9,67.0,29.66,South,171,0.0,0.0,97,0.00,,,0.41,Wunderground v.1.15,2013-09-13 05:30:00,
2013-09-13 01:35:00,67.8,66.9,29.65,South,171,0.0,0.0,97,0.00,,,0.41,Wunderground v.1.15,2013-09-13 05:35:00,
2013-09-13 01:45:00,67.8,66.9,29.65,South,171,0.0,0.0,97,0.00,,,0.41,Wunderground v.1.15,2013-09-13 05:45:00,
2013-09-13 01:55:00,67.6,66.7,29.65,South,171,0.0,0.0,97,0.00,,,0.00,Wunderground v.1.15,2013-09-13 05:55:00,
2013-09-13 02:05:00,67.3,66.4,29.65,South,171,0.0,0.0,97,0.00,,,0.00,Wunderground v.1.15,2013-09-13 06:05:00,
2013-09-13 02:15:00,66.8,65.9,29.65,South,171,0.0,0.0,97,0.00,,,0.00,Wunderground v.1.15,2013-09-13 06:15:00,
2013-09-13 02:25:00,66.6,65.7,29.64,South,171,0.0,0.0,97,0.00,,,0.00,Wunderground v.1.15,2013-09-13 06:25:00,
2013-09-13 02:35:00,66.1,65.2,29.64,South,171,0.0,0.0,97,0.00,,,0.00,Wunderground v.1.15,2013-09-13 06:35:00,
2013-09-13 02:45:00,65.8,64.9,29.64,South,171,0.0,0.0,97,0.00,,,0.00,Wunderground v.1.15,2013-09-13 06:45:00,
2013-09-13 02:55:00,65.5,64.6,29.64,South,171,0.0,0.0,97,0.00,,,0.00,Wunderground v.1.15,2013-09-13 06:55:00,
2013-09-13 03:05:00,65.2,64.3,29.64,South,171,0.0,0.0,97,0.00,,,0.00,Wunderground v.1.15,2013-09-13 07:05:00,
2013-09-13 03:10:00,65.0,64.1,29.64,South,171,0.0,0.0,97,0.00,,,0.00,Wunderground v.1.15,2013-09-13 07:10:00,
2013-09-13 03:20:00,64.8,63.9,29.64,South,171,0.0,0.0,97,0.00,,,0.00,Wunderground v.1.15,2013-09-13 07:20:00,
2013-09-13 03:30:00,64.5,63.6,29.64,South,171,0.0,0.0,97,0.00,,,0.00,Wunderground v.1.15,2013-09-13 07:30:00,
2013-09-13 03:40:00,64.3,63.4,29.64,South,171,0.0,0.0,97,0.00,,,0.00,Wunderground v.1.15,2013-09-13 07:40:00,
2013-09-13 03:45:00,64.3,63.4,29.64,South,171,0.0,0.0,97,0.00,,,0.00,Wunderground v.1.15,2013-09-13 07:45:00,
2013-09-13 03:50:00,64.3,63.4,29.64,South,171,0.0,0.0,97,0.00,,,0.00,Wunderground v.1.15,2013-09-13 07:50:00,
2013-09-13 04:00:00,64.3,63.4,29.64,South,171,0.0,0.0,97,0.00,,,0.00,Wunderground v.1.15,2013-09-13 08:00:00,
2013-09-13 04:10:00,64.3,63.4,29.64,South,171,0.0,0.0,97,0.00,,,0.00,Wunderground v.1.15,2013-09-13 08:10:00,
2013-09-13 04:15:00,64.3,63.4,29.64,South,171,0.0,0.0,97,0.00,,,0.00,Wunderground v.1.15,2013-09-13 08:15:00,
2013-09-13 04:25:00,64.2,63.3,29.64,South,171,0.0,0.0,97,0.00,,,0.00,Wunderground v.1.15,2013-09-13 08:25:00,
2013-09-13 04:35:00,64.2,63.3,29.65,South,171,0.0,0.0,97,0.00,,,0.00,Wunderground v.1.15,2013-09-13 08:35:00,
2013-09-13 04:40:00,64.2,63.3,29.65,South,171,0.0,0.0,97,0.00,,,0.00,Wunderground v.1.15,2013-09-13 08:40:00,
2013-09-13 04:50:00,64.2,63.3,29.65,South,171,0.0,0.0,97,0.00,,,0.00,Wunderground v.1.15,2013-09-13 08:50:00,
2013-09-13 04:55:00,64.3,63.4,29.65,South,171,0.0,0.0,97,0.00,,,0.00,Wunderground v.1.15,2013-09-13 08:55:00,
2013-09-13 05:05:00,64.3,63.4,29.65,South,171,0.0,0.0,97,0.00,,,0.00,Wunderground v.1.15,2013-09-13 09:05:00,
2013-09-13 05:15:00,64.2,63.3,29.65,South,171,0.0,0.0,97,0.00,,,0.00,Wunderground v.1.15,2013-09-13 09:15:00,
2013-09-13 05:25:00,64.0,63.1,29.65,South,171,0.0,0.0,97,0.00,,,0.00,Wunderground v.1.15,2013-09-13 09:25:00,
2013-09-13 05:35:00,63.9,63.0,29.65,South,171,0.0,0.0,97,0.00,,,0.00,Wunderground v.1.15,2013-09-13 09:35:00,
2013-09-13 05:45:00,63.7,62.8,29.65,South,171,0.0,0.0,97,0.00,,,0.00,Wunderground v.1.15,2013-09-13 09:45:00,
2013-09-13 05:50:00,63.7,62.8,29.65,South,171,0.0,0.0,97,0.00,,,0.00,Wunderground v.1.15,2013-09-13 09:50:00,
2013-09-13 06:00:00,63.5,62.6,29.65,South,171,0.0,0.0,97,0.00,,,0.00,Wunderground v.1.15,2013-09-13 10:00:00,
2013-09-13 06:05:00,63.5,62.6,29.65,South,171,0.0,0.0,97,0.00,,,0.00,Wunderground v.1.15,2013-09-13 10:05:00,
2013-09-13 06:15:00,63.4,62.5,29.65,South,171,0.0,0.0,97,0.00,,,0.00,Wunderground v.1.15,2013-09-13 10:15:00,
2013-09-13 06:25:00,63.1,62.2,29.66,South,171,0.0,0.0,97,0.00,,,0.00,Wunderground v.1.15,2013-09-13 10:25:00,
2013-09-13 06:35:00,62.7,61.8,29.67,East,86,0.0,0.0,97,0.00,,,0.00,Wunderground v.1.15,2013-09-13 10:35:00,
2013-09-13 06:40:00,62.6,61.7,29.67,East,86,0.0,0.0,97,0.00,,,0.00,Wunderground v.1.15,2013-09-13 10:40:00,
2013-09-13 06:50:00,62.6,61.7,29.67,East,86,0.0,0.0,97,0.00,,,0.00,Wunderground v.1.15,2013-09-13 10:50:00,
2013-09-13 07:00:00,62.4,61.5,29.67,East,86,0.0,0.0,97,0.00,,,0.00,Wunderground v.1.15,2013-09-13 11:00:00,
2013-09-13 07:10:00,62.6,61.7,29.67,East,86,0.0,0.0,97,0.00,,,0.00,Wunderground v.1.15,2013-09-13 11:10:00,
2013-09-13 07:15:00,62.6,61.7,29.67,East,86,0.0,0.0,97,0.00,,,0.00,Wunderground v.1.15,2013-09-13 11:15:00,
2013-09-13 07:25:00,62.6,61.7,29.67,East,86,0.0,0.0,97,0.00,,,0.00,Wunderground v.1.15,2013-09-13 11:25:00,
2013-09-13 07:35:00,62.6,61.7,29.67,East,86,0.0,0.0,97,0.00,,,0.00,Wunderground v.1.15,2013-09-13 11:35:00,
2013-09-13 07:40:00,62.6,61.7,29.67,East,86,0.0,0.0,97,0.00,,,0.00,Wunderground v.1.15,2013-09-13 11:40:00,
2013-09-13 07:45:00,62.4,61.5,29.67,East,86,0.0,0.0,97,0.00,,,0.00,Wunderground v.1.15,2013-09-13 11:45:00,
2013-09-13 07:55:00,62.4,61.5,29.67,East,86,0.0,0.0,97,0.00,,,0.00,Wunderground v.1.15,2013-09-13 11:55:00,
2013-09-13 08:05:00,62.4,61.5,29.68,East,86,0.0,0.0,97,0.00,,,0.00,Wunderground v.1.15,2013-09-13 12:05:00,
2013-09-13 08:15:00,62.4,61.5,29.68,East,86,0.0,0.0,97,0.00,,,0.00,Wunderground v.1.15,2013-09-13 12:15:00,
2013-09-13 08:25:00,62.7,61.8,29.67,East,86,0.0,0.0,97,0.00,,,0.00,Wunderground v.1.15,2013-09-13 12:25:00,
2013-09-13 08:30:00,62.9,62.0,29.67,East,86,0.0,0.0,97,0.00,,,0.00,Wunderground v.1.15,2013-09-13 12:30:00,
2013-09-13 08:40:00,62.9,62.0,29.69,East,86,0.0,0.0,97,0.00,,,0.00,Wunderground v.1.15,2013-09-13 12:40:00,
2013-09-13 08:50:00,62.7,61.8,29.70,East,88,0.0,0.0,97,0.00,,,0.00,Wunderground v.1.15,2013-09-13 12:50:00,
2013-09-13 09:00:00,62.7,61.8,29.70,ESE,111,0.0,0.0,97,0.00,,,0.00,Wunderground v.1.15,2013-09-13 13:00:00,
2013-09-13 09:10:00,62.9,62.0,29.70,ESE,111,0.0,0.0,97,0.00,,,0.00,Wunderground v.1.15,2013-09-13 13:10:00,
2013-09-13 09:20:00,63.1,62.2,29.70,ESE,111,0.0,0.0,97,0.00,,,0.00,Wunderground v.1.15,2013-09-13 13:20:00,
2013-09-13 09:25:00,62.6,61.7,29.70,East,87,0.0,0.0,97,0.00,,,0.00,Wunderground v.1.15,2013-09-13 13:25:00,
2013-09-13 09:35:00,62.1,61.2,29.71,NE,42,0.0,0.0,97,0.00,,,0.00,Wunderground v.1.15,2013-09-13 13:35:00,
2013-09-13 09:45:00,62.0,61.1,29.71,SSE,151,0.0,0.0,97,0.00,,,0.00,Wunderground v.1.15,2013-09-13 13:45:00,
2013-09-13 09:55:00,61.8,60.9,29.71,SSE,151,0.0,0.0,97,0.00,,,0.00,Wunderground v.1.15,2013-09-13 13:55:00,
2013-09-13 10:00:00,62.0,61.1,29.71,SSE,151,0.0,0.0,97,0.00,,,0.00,Wunderground v.1.15,2013-09-13 14:00:00,
2013-09-13 10:10:00,62.1,61.2,29.72,SSE,151,0.0,0.0,97,0.00,,,0.00,Wunderground v.1.15,2013-09-13 14:10:00,
2013-09-13 10:20:00,63.7,62.8,29.72,ENE,61,0.0,0.0,97,0.00,,,0.00,Wunderground v.1.15,2013-09-13 14:20:00,
2013-09-13 10:25:00,63.9,63.0,29.72,ENE,61,0.0,0.0,97,0.00,,,0.00,Wunderground v.1.15,2013-09-13 14:25:00,
2013-09-13 10:35:00,64.0,63.1,29.71,ENE,72,0.0,0.0,97,0.00,,,0.00,Wunderground v.1.15,2013-09-13 14:35:00,
2013-09-13 10:45:00,65.6,62.3,29.71,SSE,166,0.0,0.0,89,0.00,,,0.00,Wunderground v.1.15,2013-09-13 14:45:00,
2013-09-13 10:55:00,67.9,60.4,29.72,ENE,61,0.0,0.0,77,0.00,,,0.00,Wunderground v.1.15,2013-09-13 14:55:00,
2013-09-13 11:05:00,69.1,58.1,29.72,NE,55,0.0,1.0,68,0.00,,,0.00,Wunderground v.1.15,2013-09-13 15:05:00,
2013-09-13 11:15:00,68.9,57.1,29.72,ENE,64,1.0,3.0,66,0.00,,,0.00,Wunderground v.1.15,2013-09-13 15:15:00,
2013-09-13 11:20:00,69.3,57.5,29.72,North,10,1.0,1.0,66,0.00,,,0.00,Wunderground v.1.15,2013-09-13 15:20:00,
2013-09-13 11:30:00,69.8,59.2,29.72,SSE,157,1.0,2.0,69,0.00,,,0.00,Wunderground v.1.15,2013-09-13 15:30:00,
2013-09-13 11:40:00,71.3,59.8,29.72,NE,35,0.0,2.0,67,0.00,,,0.00,Wunderground v.1.15,2013-09-13 15:40:00,
2013-09-13 11:50:00,70.6,57.8,29.71,South,183,1.0,1.0,64,0.00,,,0.00,Wunderground v.1.15,2013-09-13 15:50:00,
2013-09-13 12:00:00,72.3,56.2,29.71,SE,144,1.0,1.0,57,0.00,,,0.00,Wunderground v.1.15,2013-09-13 16:00:00,
2013-09-13 12:10:00,73.0,57.8,29.71,SE,126,1.0,2.0,59,0.00,,,0.00,Wunderground v.1.15,2013-09-13 16:10:00,
2013-09-13 12:20:00,72.1,55.5,29.70,West,273,1.0,1.0,56,0.00,,,0.00,Wunderground v.1.15,2013-09-13 16:20:00,
2013-09-13 12:25:00,74.6,55.8,29.70,South,188,1.0,1.0,52,0.00,,,0.00,Wunderground v.1.15,2013-09-13 16:25:00,
2013-09-13 12:30:00,75.6,56.7,29.70,SSE,162,1.0,2.0,52,0.00,,,0.00,Wunderground v.1.15,2013-09-13 16:30:00,
2013-09-13 12:35:00,73.5,52.6,29.71,SE,140,1.0,2.0,48,0.00,,,0.00,Wunderground v.1.15,2013-09-13 16:35:00,
2013-09-13 12:45:00,73.2,55.0,29.71,SE,134,2.0,4.0,53,0.00,,,0.00,Wunderground v.1.15,2013-09-13 16:45:00,
2013-09-13 12:55:00,73.0,55.4,29.71,NE,51,1.0,2.0,54,0.00,,,0.00,Wunderground v.1.15,2013-09-13 16:55:00,
2013-09-13 13:00:00,72.8,53.1,29.71,North,5,2.0,2.0,50,0.00,,,0.00,Wunderground v.1.15,2013-09-13 17:00:00,
2013-09-13 13:10:00,73.5,53.7,29.70,East,83,1.0,2.0,50,0.00,,,0.00,Wunderground v.1.15,2013-09-13 17:10:00,
2013-09-13 13:20:00,72.5,54.4,29.71,South,180,1.0,1.0,53,0.00,,,0.00,Wunderground v.1.15,2013-09-13 17:20:00,
2013-09-13 13:30:00,72.8,54.7,29.71,South,186,1.0,1.0,53,0.00,,,0.00,Wunderground v.1.15,2013-09-13 17:30:00,
2013-09-13 13:35:00,73.2,52.9,29.70,ESE,113,1.0,1.0,49,0.00,,,0.00,Wunderground v.1.15,2013-09-13 17:35:00,
2013-09-13 13:45:00,73.5,52.6,29.70,WNW,302,1.0,3.0,48,0.00,,,0.00,Wunderground v.1.15,2013-09-13 17:45:00,
2013-09-13 13:50:00,74.0,56.3,29.70,North,5,1.0,1.0,54,0.00,,,0.00,Wunderground v.1.15,2013-09-13 17:50:00,
2013-09-13 14:00:00,73.9,52.4,29.70,NNW,340,0.0,1.0,47,0.00,,,0.00,Wunderground v.1.15,2013-09-13 18:00:00,
2013-09-13 14:05:00,74.7,50.1,29.69,SW,231,1.0,1.0,42,0.00,,,0.00,Wunderground v.1.15,2013-09-13 18:05:00,
2013-09-13 14:15:00,73.7,52.2,29.69,East,90,1.0,1.0,47,0.00,,,0.00,Wunderground v.1.15,2013-09-13 18:15:00,
2013-09-13 14:25:00,75.3,54.8,29.69,South,184,0.0,4.0,49,0.00,,,0.00,Wunderground v.1.15,2013-09-13 18:25:00,
2013-09-13 14:35:00,76.1,52.6,29.69,ESE,115,1.0,1.0,44,0.00,,,0.00,Wunderground v.1.15,2013-09-13 18:35:00,
2013-09-13 14:45:00,74.0,52.5,29.69,East,88,0.0,1.0,47,0.00,,,0.00,Wunderground v.1.15,2013-09-13 18:45:00,
2013-09-13 14:50:00,73.3,51.8,29.69,South,182,1.0,1.0,47,0.00,,,0.00,Wunderground v.1.15,2013-09-13 18:50:00,
2013-09-13 14:55:00,72.8,52.0,29.69,ENE,75,1.0,1.0,48,0.00,,,0.00,Wunderground v.1.15,2013-09-13 18:55:00,
2013-09-13 15:05:00,72.1,52.4,29.70,SSE,153,0.0,2.0,50,0.00,,,0.00,Wunderground v.1.15,2013-09-13 19:05:00,
2013-09-13 15:15:00,73.2,55.6,29.70,South,175,0.0,1.0,54,0.00,,,0.00,Wunderground v.1.15,2013-09-13 19:15:00,
2013-09-13 15:20:00,74.2,54.4,29.70,WNW,300,0.0,1.0,50,0.00,,,0.00,Wunderground v.1.15,2013-09-13 19:20:00,
2013-09-13 15:30:00,74.9,49.6,29.70,NNE,17,1.0,1.0,41,0.00,,,0.00,Wunderground v.1.15,2013-09-13 19:30:00,
2013-09-13 15:35:00,74.7,49.4,29.69,SSE,153,1.0,2.0,41,0.00,,,0.00,Wunderground v.1.15,2013-09-13 19:35:00,
2013-09-13 15:45:00,75.3,53.1,29.69,SSE,161,1.0,1.0,46,0.00,,,0.00,Wunderground v.1.15,2013-09-13 19:45:00,
2013-09-13 15:50:00,75.1,51.1,29.69,ENE,77,1.0,1.0,43,0.00,,,0.00,Wunderground v.1.15,2013-09-13 19:50:00,
2013-09-13 15:55:00,74.9,52.7,29.69,ENE,63,1.0,2.0,46,0.00,,,0.00,Wunderground v.1.15,2013-09-13 19:55:00,
2013-09-13 16:05:00,73.5,52.0,29.69,ESE,106,0.0,1.0,47,0.00,,,0.00,Wunderground v.1.15,2013-09-13 20:05:00,
2013-09-13 16:15:00,72.7,51.3,29.69,North,355,0.0,2.0,47,0.00,,,0.00,Wunderground v.1.15,2013-09-13 20:15:00,
2013-09-13 16:20:00,72.3,50.9,29.69,North,355,0.0,1.0,47,0.00,,,0.00,Wunderground v.1.15,2013-09-13 20:20:00,
2013-09-13 16:25:00,72.3,50.9,29.69,North,10,0.0,1.0,47,0.00,,,0.00,Wunderground v.1.15,2013-09-13 20:25:00,
2013-09-13 16:35:00,73.2,51.8,29.69,SE,132,0.0,1.0,47,0.00,,,0.00,Wunderground v.1.15,2013-09-13 20:35:00,
2013-09-13 16:40:00,73.9,48.7,29.69,ENE,64,1.0,1.0,41,0.00,,,0.00,Wunderground v.1.15,2013-09-13 20:40:00,
2013-09-13 16:50:00,74.9,50.3,29.69,ESE,111,0.0,1.0,42,0.00,,,0.00,Wunderground v.1.15,2013-09-13 20:50:00,
2013-09-13 17:00:00,74.6,50.0,29.69,North,360,1.0,1.0,42,0.00,,,0.00,Wunderground v.1.15,2013-09-13 21:00:00,
2013-09-13 17:05:00,74.2,50.3,29.69,East,83,0.0,1.0,43,0.00,,,0.00,Wunderground v.1.15,2013-09-13 21:05:00,
2013-09-13 17:10:00,73.5,54.3,29.69,SE,128,1.0,1.0,51,0.00,,,0.00,Wunderground v.1.15,2013-09-13 21:10:00,
2013-09-13 17:20:00,72.7,53.5,29.69,SSE,167,0.0,1.0,51,0.00,,,0.00,Wunderground v.1.15,2013-09-13 21:20:00,
2013-09-13 17:30:00,71.6,52.5,29.69,ENE,58,1.0,2.0,51,0.00,,,0.00,Wunderground v.1.15,2013-09-13 21:30:00,
2013-09-13 17:40:00,70.8,52.3,29.71,SE,132,1.0,1.0,52,0.00,,,0.00,Wunderground v.1.15,2013-09-13 21:40:00,
2013-09-13 17:45:00,70.4,51.4,29.71,NE,53,1.0,1.0,51,0.00,,,0.00,Wunderground v.1.15,2013-09-13 21:45:00,
2013-09-13 17:55:00,70.1,50.6,29.72,ESE,106,1.0,1.0,50,0.00,,,0.00,Wunderground v.1.15,2013-09-13 21:55:00,
2013-09-13 18:05:00,69.6,51.2,29.72,SSE,159,1.0,3.0,52,0.00,,,0.00,Wunderground v.1.15,2013-09-13 22:05:00,
2013-09-13 18:15:00,69.3,51.9,29.72,NNW,342,1.0,2.0,54,0.00,,,0.00,Wunderground v.1.15,2013-09-13 22:15:00,
2013-09-13 18:25:00,68.8,51.0,29.73,East,91,1.0,2.0,53,0.00,,,0.00,Wunderground v.1.15,2013-09-13 22:25:00,
2013-09-13 18:35:00,68.3,51.0,29.74,ENE,67,1.0,2.0,54,0.00,,,0.00,Wunderground v.1.15,2013-09-13 22:35:00,
2013-09-13 18:45:00,67.3,51.1,29.74,ENE,76,1.0,1.0,56,0.00,,,0.00,Wunderground v.1.15,2013-09-13 22:45:00,
2013-09-13 18:55:00,66.9,51.6,29.74,East,83,0.0,1.0,58,0.00,,,0.00,Wunderground v.1.15,2013-09-13 22:55:00,
2013-09-13 19:05:00,66.6,52.3,29.75,East,83,0.0,1.0,60,0.00,,,0.00,Wunderground v.1.15,2013-09-13 23:05:00,
2013-09-13 19:15:00,66.1,53.1,29.75,East,82,0.0,1.0,63,0.00,,,0.00,Wunderground v.1.15,2013-09-13 23:15:00,
2013-09-13 19:25:00,65.8,54.1,29.76,East,82,0.0,1.0,66,0.00,,,0.00,Wunderground v.1.15,2013-09-13 23:25:00,
2013-09-13 19:35:00,65.3,53.6,29.77,NNE,17,0.0,1.0,66,0.00,,,0.00,Wunderground v.1.15,2013-09-13 23:35:00,
2013-09-13 19:45:00,65.0,53.8,29.77,NNE,17,0.0,1.0,67,0.00,,,0.00,Wunderground v.1.15,2013-09-13 23:45:00,
2013-09-13 19:55:00,64.5,53.3,29.78,NNE,17,0.0,1.0,67,0.00,,,0.00,Wunderground v.1.15,2013-09-13 23:55:00,
2013-09-13 20:00:00,64.3,53.5,29.78,NNE,17,0.0,1.0,68,0.00,,,0.00,Wunderground v.1.15,2013-09-14 00:00:00,
2013-09-13 20:10:00,64.0,53.2,29.79,NNE,17,0.0,1.0,68,0.00,,,0.00,Wunderground v.1.15,2013-09-14 00:10:00,
2013-09-13 20:20:00,63.7,53.7,29.80,NNE,17,0.0,1.0,70,0.00,,,0.00,Wunderground v.1.15,2013-09-14 00:20:00,
2013-09-13 20:30:00,63.2,54.0,29.80,NNE,17,0.0,1.0,72,0.00,,,0.00,Wunderground v.1.15,2013-09-14 00:30:00,
2013-09-13 20:40:00,62.6,54.2,29.80,NNE,17,0.0,1.0,74,0.00,,,0.00,Wunderground v.1.15,2013-09-14 00:40:00,
2013-09-13 20:45:00,62.4,54.4,29.80,NNE,17,0.0,1.0,75,0.00,,,0.00,Wunderground v.1.15,2013-09-14 00:45:00,
2013-09-13 20:55:00,62.0,54.3,29.81,NNE,17,0.0,1.0,76,0.00,,,0.00,Wunderground v.1.15,2013-09-14 00:55:00,
2013-09-13 21:05:00,61.5,53.9,29.82,NNE,17,0.0,1.0,76,0.00,,,0.00,Wunderground v.1.15,2013-09-14 01:05:00,
2013-09-13 21:15:00,61.2,53.9,29.82,NNE,17,0.0,1.0,77,0.00,,,0.00,Wunderground v.1.15,2013-09-14 01:15:00,
2013-09-13 21:20:00,61.0,53.7,29.82,NNE,17,0.0,1.0,77,0.00,,,0.00,Wunderground v.1.15,2013-09-14 01:20:00,
2013-09-13 21:30:00,60.7,53.4,29.82,NNE,17,0.0,1.0,77,0.00,,,0.00,Wunderground v.1.15,2013-09-14 01:30:00,
2013-09-13 21:35:00,60.7,53.4,29.83,NNE,17,0.0,1.0,77,0.00,,,0.00,Wunderground v.1.15,2013-09-14 01:35:00,
2013-09-13 21:40:00,60.5,54.0,29.83,NNE,17,0.0,1.0,79,0.00,,,0.00,Wunderground v.1.15,2013-09-14 01:40:00,
2013-09-13 21:50:00,60.4,54.2,29.83,NNE,17,0.0,1.0,80,0.00,,,0.00,Wunderground v.1.15,2013-09-14 01:50:00,
2013-09-13 22:00:00,60.2,53.7,29.83,NNE,17,0.0,1.0,79,0.00,,,0.00,Wunderground v.1.15,2013-09-14 02:00:00,
2013-09-13 22:10:00,60.2,53.0,29.83,NNE,15,0.0,1.0,77,0.00,,,0.00,Wunderground v.1.15,2013-09-14 02:10:00,
2013-09-13 22:20:00,60.2,53.0,29.83,NNE,15,0.0,1.0,77,0.00,,,0.00,Wunderground v.1.15,2013-09-14 02:20:00,
2013-09-13 22:25:00,60.2,52.6,29.83,NNE,15,0.0,1.0,76,0.00,,,0.00,Wunderground v.1.15,2013-09-14 02:25:00,
2013-09-13 22:35:00,60.2,53.0,29.84,NNE,15,0.0,1.0,77,0.00,,,0.00,Wunderground v.1.15,2013-09-14 02:35:00,
2013-09-13 22:45:00,60.1,52.9,29.84,NNE,15,0.0,1.0,77,0.00,,,0.00,Wunderground v.1.15,2013-09-14 02:45:00,
2013-09-13 22:50:00,60.1,52.9,29.85,NNE,15,0.0,1.0,77,0.00,,,0.00,Wunderground v.1.15,2013-09-14 02:50:00,
2013-09-13 22:55:00,59.9,52.7,29.85,NNE,15,0.0,1.0,77,0.00,,,0.00,Wunderground v.1.15,2013-09-14 02:55:00,
2013-09-13 23:00:00,59.8,52.2,29.85,NNE,15,0.0,2.0,76,0.00,,,0.00,Wunderground v.1.15,2013-09-14 03:00:00,
2013-09-13 23:05:00,59.8,52.6,29.85,NNE,15,0.0,2.0,77,0.00,,,0.00,Wunderground v.1.15,2013-09-14 03:05:00,
2013-09-13 23:15:00,59.8,52.2,29.85,NNE,15,0.0,1.0,76,0.00,,,0.00,Wunderground v.1.15,2013-09-14 03:15:00,
2013-09-13 23:25:00,59.6,51.3,29.85,NNE,15,0.0,1.0,74,0.00,,,0.00,Wunderground v.1.15,2013-09-14 03:25:00,
2013-09-13 23:30:00,59.6,51.3,29.85,NNE,15,0.0,1.0,74,0.00,,,0.00,Wunderground v.1.15,2013-09-14 03:30:00,
2013-09-13 23:40:00,59.8,50.8,29.85,East,95,0.0,1.0,72,0.00,,,0.00,Wunderground v.1.15,2013-09-14 03:40:00,
2013-09-13 23:45:00,59.8,51.1,29.85,East,94,0.0,1.0,73,0.00,,,0.00,Wunderground v.1.15,2013-09-14 03:45:00,
2013-09-13 23:50:00,59.8,51.1,29.86,East,94,0.0,1.0,73,0.00,,,0.00,Wunderground v.1.15,2013-09-14 03:50:00,